Flight Track Log - Related Links

Times and Time Zones

All times are in EDT time to prevent confusion due to time zone crossing. See the SWA430 flight status page for this flight to view local times or setup timezone preferences in your user account.

Time Position Orientation Groundspeed Altitude Reporting Facility
EDT Latitude Longitude Course Direction KTS MPH feet Rate Location/Type
Tue 04:55:20 PM 37.7333 -122.2500 288° West 154 177 2,100  Level Northern Cal TRACON
Tue 04:56:14 PM 37.7500 -122.3167 288° West 213 245 4,300 2,950 Climbing Northern Cal TRACON
Tue 04:57:20 PM 37.7000 -122.3833 227° Southwest 294 338 8,000 3,850 Climbing Northern Cal TRACON
Tue 04:58:14 PM 37.6167 -122.4000 189° South 325 374 12,000 3,770 Climbing Northern Cal TRACON
Tue 04:59:13 PM 37.5644 -122.3367 136° Southeast 325 374 15,100 2,800 Climbing Oakland Center
Tue 05:00:14 PM 37.5314 -122.2128 109° East 370 426 17,600 2,459 Climbing Oakland Center
Tue 05:01:15 PM 37.4964 -122.0772 108° East 403 464 20,100 2,878 Climbing Oakland Center
Tue 05:02:17 PM 37.4508 -121.9014 108° East 440 506 23,500 2,976 Climbing Oakland Center
Tue 05:03:18 PM 37.4128 -121.7531 108° East 448 516 26,200 1,770 Climbing Oakland Center
Tue 05:04:19 PM 37.3725 -121.5992 108° East 461 531 27,100 1,770 Climbing Oakland Center
Tue 05:05:20 PM 37.3333 -121.4506 108° East 472 543 29,800 2,311 Climbing Oakland Center
Tue 05:06:21 PM 37.2933 -121.2997 108° East 461 531 31,800 1,574 Climbing Oakland Center
Tue 05:07:22 PM 37.2517 -121.1433 108° East 471 542 33,000 590 Climbing Oakland Center
Tue 05:08:23 PM 37.2083 -120.9836 109° East 482 555 33,000  Level Oakland Center
Tue 05:09:24 PM 37.1647 -120.8222 109° East 486 559 33,000  Level Oakland Center
Tue 05:10:25 PM 37.1106 -120.6283 109° East 493 567 33,000  Level Oakland Center
Tue 05:11:26 PM 37.0819 -120.4631 102° East 493 567 33,000  Level Oakland Center
Tue 05:12:27 PM 37.1003 -120.2989 82° East 479 551 33,000  Level Oakland Center
Tue 05:13:28 PM 37.1200 -120.1331 81° East 483 556 33,000  Level Oakland Center
Tue 05:14:29 PM 37.1408 -119.9672 81° East 482 555 33,000  Level Oakland Center
Tue 05:15:31 PM 37.1603 -119.8017 82° East 477 549 33,000  Level Oakland Center
Tue 05:16:32 PM 37.1786 -119.6369 82° East 477 549 33,000  Level Oakland Center
Tue 05:17:33 PM 37.1981 -119.4728 81° East 477 549 33,000  Level Oakland Center
Tue 05:18:34 PM 37.2172 -119.3094 82° East 473 544 33,000  Level Oakland Center
Tue 05:19:35 PM 37.2353 -119.1469 82° East 471 542 33,000 -49 Level Oakland Center
Tue 05:20:36 PM 37.2539 -118.9828 82° East 475 547 32,900  Descending Oakland Center
Tue 05:21:37 PM 37.2722 -118.8186 82° East 476 548 33,000 49 Climbing Oakland Center
Tue 05:22:39 PM 37.2925 -118.6267 82° East 467 537 33,000  Level Oakland Center
Tue 05:23:40 PM 37.3089 -118.4625 83° East 472 543 33,000  Level Oakland Center
Tue 05:24:41 PM 37.3253 -118.3233 82° East 472 543 33,000  Level Oakland Center
Tue 05:25:42 PM 37.3458 -118.1275 82° East 472 543 33,000  Level Oakland Center
Tue 05:26:43 PM 37.3631 -117.9631 82° East 476 548 33,000  Level Oakland Center
Tue 05:27:44 PM 37.3792 -117.7997 83° East 473 544 33,000  Level Oakland Center
Tue 05:28:46 PM 37.3953 -117.6367 83° East 473 544 33,000  Level Oakland Center
Tue 05:29:47 PM 37.4119 -117.4733 83° East 473 544 33,000  Level Oakland Center
Tue 05:30:48 PM 37.4150 -117.3058 89° East 485 558 33,000  Level Oakland Center
Tue 05:31:49 PM 37.3283 -117.1936 134° Southeast 461 531 33,000  Level Oakland Center
Tue 05:32:50 PM 37.2228 -117.1044 146° Southeast 458 527 33,000  Level Oakland Center
Tue 05:33:09 PM 37.1819 -117.0675 144° Southeast 455 524 33,000  Level Los Angeles Center
Tue 05:33:52 PM 37.1186 -117.0150 147° Southeast 455 524 33,000  Level Oakland Center
Tue 05:34:53 PM 36.9919 -116.9100 146° Southeast 455 524 33,000  Level Oakland Center
Tue 05:35:54 PM 36.8878 -116.8211 146° Southeast 453 521 33,000  Level Oakland Center
Tue 05:36:15 PM 36.8667 -116.8033 146° Southeast 451 519 33,000 -795 Level Los Angeles Center
Tue 05:37:17 PM 36.7528 -116.6803 139° Southeast 452 520 31,900 -2,081 Descending Los Angeles Center
Tue 05:38:19 PM 36.6681 -116.5569 131° Southeast 464 534 28,700 -2,952 Descending Los Angeles Center
Tue 05:39:21 PM 36.5811 -116.4339 131° Southeast 471 542 25,800 -2,661 Descending Los Angeles Center
Tue 05:40:23 PM 36.4900 -116.3047 131° Southeast 465 535 23,200 -2,371 Descending Los Angeles Center
Tue 05:41:25 PM 36.4083 -116.1892 131° Southeast 449 517 20,900 -2,226 Descending Los Angeles Center
Tue 05:42:27 PM 36.3278 -116.0706 130° Southeast 423 487 18,600 -2,278 Descending Los Angeles Center
Tue 05:43:13 PM 36.2656 -115.9953 136° Southeast 408 470 16,800 -2,129 Descending Los Angeles Center
Tue 05:43:29 PM 36.2525 -115.9689 122° Southeast 399 459 16,400 -1,000 Descending Los Angeles Center
Tue 05:44:01 PM 36.2128 -115.9192 135° Southeast 381 438 16,000 -484 Descending Los Angeles Center
Tue 05:44:31 PM 36.1917 -115.8703 118° Southeast 361 415 15,900 -873 Descending Los Angeles Center
Tue 05:44:56 PM 36.1731 -115.8228 116° Southeast 339 390 15,200 -1,672 Descending Los Angeles Center
Tue 05:45:32 PM 36.1544 -115.7567 109° East 330 380 14,200 -1,672 Descending Los Angeles Center
Tue 05:45:57 PM 36.1403 -115.7192 115° Southeast 323 372 13,500 -1,742 Descending Los Angeles Center
Tue 05:46:34 PM 36.1219 -115.6556 110° East 319 367 12,400 -1,418 Descending Los Angeles Center
Tue 05:46:52 PM 36.1103 -115.6278 117° Southeast 316 364 12,200 -387 Descending Los Angeles Center
Tue 05:47:36 PM 36.0886 -115.5550 110° East 292 336 12,000 -182 Descending Los Angeles Center
Tue 05:47:58 PM 36.0778 -115.5267 115° Southeast 269 310 12,000  Level Los Angeles Center
Tue 05:48:38 PM 36.0631 -115.4772 110° East 270 311 12,000  Level Los Angeles Center
Tue 05:49:05 PM 36.0494 -115.4347 112° Southeast 263 303 12,000  Level Los Angeles Center
Tue 05:49:40 PM 36.0361 -115.3933 112° Southeast 264 304 12,000 -590 Level Los Angeles Center
Tue 05:50:06 PM 36.0289 -115.3486 101° East 266 306 11,400 -871 Descending Los Angeles Center
Tue 05:50:42 PM 36.0253 -115.3033 96° East 273 314 11,100 -590 Descending Los Angeles Center
Tue 05:51:07 PM 36.0206 -115.2503 96° East 268 308 10,800 -677 Descending Los Angeles Center
Tue 05:51:44 PM 36.0175 -115.2003 94° East 255 293 10,400 -655 Descending Los Angeles Center
Tue 05:52:02 PM 36.0172 -115.1850 91° East 225 259 10,200 -774 Descending Los Angeles Center
Tue 05:52:46 PM 35.9989 -115.1406 117° Southeast 227 261 9,600 -985 Descending Los Angeles Center
Tue 05:53:09 PM 35.9786 -115.1472 195° South 198 228 9,100 -1,161 Descending Los Angeles Center
Tue 05:53:48 PM 35.9472 -115.1586 196° South 197 227 8,400 -1,000 Descending Los Angeles Center
Tue 05:54:09 PM 35.9272 -115.1694 204° Southwest 196 226 8,100 -787 Descending Los Angeles Center
Tue 05:54:49 PM 35.8961 -115.1817 198° South 197 227 7,600 -984 Descending Los Angeles Center
Tue 05:55:10 PM 35.8853 -115.2044 240° Southwest 187 215 7,100 -1,161 Descending Los Angeles Center
Tue 05:55:51 PM 35.9036 -115.2303 311° West 191 220 6,400 -1,082 Descending Los Angeles Center
Tue 05:56:11 PM 35.9242 -115.2342 351° North 179 206 6,000 -667 Descending Los Angeles Center
Tue 05:57:12 PM 35.9742 -115.2256 North 173 199 5,500 -678 Descending Los Angeles Center
Tue 05:58:06 PM 36.0061 -115.2044 28° Northeast 135 155 4,700 -1,257 Descending Los Angeles Center
Tue 05:58:57 PM 36.0361 -115.1869 25° Northeast 163 188 3,300 -1,115 Descending Los Angeles Center
Tue 05:59:59 PM 36.0636 -115.1711 25° Northeast 146 168 2,600 -677 Descending Los Angeles Center
Tue 06:01:00 PM 36.0801 -115.1523 100° East  Level Estimated
Tue 06:08:00 PM 36.0801 -115.1523 270° West  Level Estimated

Login

Don't have an account? Register now (free) for customized features, flight alerts, and more!